sensor_id;sensor_type;location;lat;lon;timestamp;pressure;altitude;pressure_sealevel;temperature;humidity
15646;BME280;7922;43.622;1.476;2023-06-10T00:01:21;99695.56;;;15.86;100.00
15646;BME280;7922;43.622;1.476;2023-06-10T00:03:46;99661.63;;;15.61;100.00
15646;BME280;7922;43.622;1.476;2023-06-10T00:06:11;99652.13;;;15.57;100.00
15646;BME280;7922;43.622;1.476;2023-06-10T00:08:36;99643.38;;;15.55;100.00
15646;BME280;7922;43.622;1.476;2023-06-10T00:11:02;99606.94;;;15.41;100.00
15646;BME280;7922;43.622;1.476;2023-06-10T00:13:27;99653.38;;;15.66;100.00
15646;BME280;7922;43.622;1.476;2023-06-10T00:15:52;99648.03;;;15.66;100.00
15646;BME280;7922;43.622;1.476;2023-06-10T00:18:17;99487.50;;;14.66;100.00
15646;BME280;7922;43.622;1.476;2023-06-10T00:20:43;99647.56;;;15.59;100.00
15646;BME280;7922;43.622;1.476;2023-06-10T00:23:08;99680.91;;;15.79;100.00
15646;BME280;7922;43.622;1.476;2023-06-10T00:25:34;99657.72;;;15.67;100.00
15646;BME280;7922;43.622;1.476;2023-06-10T00:27:59;99611.97;;;15.33;100.00
15646;BME280;7922;43.622;1.476;2023-06-10T00:30:24;99660.13;;;15.57;100.00
15646;BME280;7922;43.622;1.476;2023-06-10T00:32:50;99577.13;;;15.09;100.00
15646;BME280;7922;43.622;1.476;2023-06-10T00:35:15;99673.28;;;15.60;100.00
15646;BME280;7922;43.622;1.476;2023-06-10T00:37:40;99673.84;;;15.65;100.00
15646;BME280;7922;43.622;1.476;2023-06-10T00:40:06;99601.25;;;15.20;100.00
15646;BME280;7922;43.622;1.476;2023-06-10T00:42:32;99648.81;;;15.40;100.00
15646;BME280;7922;43.622;1.476;2023-06-10T00:44:57;99597.41;;;15.11;100.00
15646;BME280;7922;43.622;1.476;2023-06-10T00:47:22;99648.16;;;15.37;100.00
15646;BME280;7922;43.622;1.476;2023-06-10T00:49:49;99677.31;;;15.53;100.00
15646;BME280;7922;43.622;1.476;2023-06-10T00:52:16;99593.31;;;15.06;100.00
15646;BME280;7922;43.622;1.476;2023-06-10T00:54:41;99676.69;;;15.49;100.00
15646;BME280;7922;43.622;1.476;2023-06-10T00:57:07;99520.66;;;14.62;100.00
15646;BME280;7922;43.622;1.476;2023-06-10T00:59:33;99568.66;;;14.89;100.00
15646;BME280;7922;43.622;1.476;2023-06-10T01:01:58;99614.47;;;15.09;100.00
15646;BME280;7922;43.622;1.476;2023-06-10T01:04:24;99653.50;;;15.37;100.00
15646;BME280;7922;43.622;1.476;2023-06-10T01:07:24;99697.44;;;15.58;100.00
15646;BME280;7922;43.622;1.476;2023-06-10T01:10:09;99699.25;;;15.58;100.00
15646;BME280;7922;43.622;1.476;2023-06-10T01:12:39;99689.72;;;15.54;100.00
15646;BME280;7922;43.622;1.476;2023-06-10T01:15:06;99644.72;;;15.22;100.00
15646;BME280;7922;43.622;1.476;2023-06-10T01:17:33;99544.00;;;14.59;100.00
15646;BME280;7922;43.622;1.476;2023-06-10T01:19:58;99638.72;;;15.19;100.00
15646;BME280;7922;43.622;1.476;2023-06-10T01:22:24;99654.00;;;15.29;100.00
15646;BME280;7922;43.622;1.476;2023-06-10T01:24:50;99660.09;;;15.31;100.00
15646;BME280;7922;43.622;1.476;2023-06-10T01:27:19;99622.88;;;15.03;100.00
15646;BME280;7922;43.622;1.476;2023-06-10T01:29:51;99546.69;;;14.59;100.00
15646;BME280;7922;43.622;1.476;2023-06-10T01:32:37;99576.06;;;14.72;100.00
15646;BME280;7922;43.622;1.476;2023-06-10T01:35:06;99672.13;;;15.24;100.00
15646;BME280;7922;43.622;1.476;2023-06-10T01:37:33;99631.75;;;15.03;100.00
15646;BME280;7922;43.622;1.476;2023-06-10T01:40:00;99664.78;;;15.28;100.00
15646;BME280;7922;43.622;1.476;2023-06-10T01:42:27;99682.41;;;15.30;100.00
15646;BME280;7922;43.622;1.476;2023-06-10T01:44:53;99642.41;;;15.03;100.00
15646;BME280;7922;43.622;1.476;2023-06-10T01:47:18;99519.81;;;14.35;100.00
15646;BME280;7922;43.622;1.476;2023-06-10T01:49:43;99660.34;;;15.14;100.00
15646;BME280;7922;43.622;1.476;2023-06-10T01:52:09;99662.28;;;15.12;100.00
15646;BME280;7922;43.622;1.476;2023-06-10T01:54:34;99649.34;;;15.06;100.00
15646;BME280;7922;43.622;1.476;2023-06-10T01:57:00;99700.44;;;15.39;100.00
15646;BME280;7922;43.622;1.476;2023-06-10T01:59:25;99507.72;;;14.29;100.00
15646;BME280;7922;43.622;1.476;2023-06-10T02:01:51;99641.03;;;15.10;100.00
15646;BME280;7922;43.622;1.476;2023-06-10T02:04:16;99646.03;;;15.02;100.00
15646;BME280;7922;43.622;1.476;2023-06-10T02:06:41;99644.97;;;15.05;100.00
15646;BME280;7922;43.622;1.476;2023-06-10T02:09:06;99700.69;;;15.36;100.00
15646;BME280;7922;43.622;1.476;2023-06-10T02:11:32;99579.81;;;14.55;100.00
15646;BME280;7922;43.622;1.476;2023-06-10T02:13:57;99662.59;;;15.07;100.00
15646;BME280;7922;43.622;1.476;2023-06-10T02:16:22;99706.97;;;15.35;100.00
15646;BME280;7922;43.622;1.476;2023-06-10T02:18:47;99595.03;;;14.67;100.00
15646;BME280;7922;43.622;1.476;2023-06-10T02:21:13;99582.78;;;14.50;100.00
15646;BME280;7922;43.622;1.476;2023-06-10T02:23:38;99649.84;;;14.98;100.00
15646;BME280;7922;43.622;1.476;2023-06-10T02:26:03;99647.69;;;14.90;100.00
15646;BME280;7922;43.622;1.476;2023-06-10T02:28:29;99585.34;;;14.52;100.00
15646;BME280;7922;43.622;1.476;2023-06-10T02:30:54;99628.22;;;14.76;100.00
15646;BME280;7922;43.622;1.476;2023-06-10T02:33:19;99665.50;;;14.90;100.00
15646;BME280;7922;43.622;1.476;2023-06-10T02:35:45;99664.09;;;14.84;100.00
15646;BME280;7922;43.622;1.476;2023-06-10T02:38:10;99569.66;;;14.33;100.00
15646;BME280;7922;43.622;1.476;2023-06-10T02:40:35;99588.03;;;14.37;100.00
15646;BME280;7922;43.622;1.476;2023-06-10T02:43:01;99681.13;;;14.96;100.00
15646;BME280;7922;43.622;1.476;2023-06-10T02:45:26;99692.78;;;15.08;100.00
15646;BME280;7922;43.622;1.476;2023-06-10T02:47:51;99552.56;;;14.23;100.00
15646;BME280;7922;43.622;1.476;2023-06-10T02:50:17;99706.03;;;15.09;100.00
15646;BME280;7922;43.622;1.476;2023-06-10T02:52:43;99542.91;;;14.07;100.00
15646;BME280;7922;43.622;1.476;2023-06-10T02:55:08;99685.22;;;14.87;100.00
15646;BME280;7922;43.622;1.476;2023-06-10T02:57:34;99679.34;;;14.82;100.00
15646;BME280;7922;43.622;1.476;2023-06-10T02:59:59;99537.75;;;14.04;100.00
15646;BME280;7922;43.622;1.476;2023-06-10T03:02:24;99489.22;;;13.72;100.00
15646;BME280;7922;43.622;1.476;2023-06-10T03:04:50;99629.50;;;14.56;100.00
15646;BME280;7922;43.622;1.476;2023-06-10T03:07:15;99621.44;;;14.43;100.00
15646;BME280;7922;43.622;1.476;2023-06-10T03:09:40;99577.03;;;14.15;100.00
15646;BME280;7922;43.622;1.476;2023-06-10T03:12:06;99680.22;;;14.68;100.00
15646;BME280;7922;43.622;1.476;2023-06-10T03:14:31;99682.06;;;14.68;100.00
15646;BME280;7922;43.622;1.476;2023-06-10T03:16:57;99665.03;;;14.56;100.00
15646;BME280;7922;43.622;1.476;2023-06-10T03:19:22;99570.78;;;14.02;100.00
15646;BME280;7922;43.622;1.476;2023-06-10T03:21:49;99723.59;;;14.85;100.00
15646;BME280;7922;43.622;1.476;2023-06-10T03:24:15;99667.78;;;14.55;100.00
15646;BME280;7922;43.622;1.476;2023-06-10T03:26:40;99618.22;;;14.24;100.00
15646;BME280;7922;43.622;1.476;2023-06-10T03:29:05;99622.31;;;14.29;100.00
15646;BME280;7922;43.622;1.476;2023-06-10T03:31:31;99673.78;;;14.58;100.00
15646;BME280;7922;43.622;1.476;2023-06-10T03:33:56;99540.28;;;13.79;100.00
15646;BME280;7922;43.622;1.476;2023-06-10T03:36:21;99671.41;;;14.54;100.00
15646;BME280;7922;43.622;1.476;2023-06-10T03:38:46;99665.69;;;14.45;100.00
15646;BME280;7922;43.622;1.476;2023-06-10T03:41:12;99689.69;;;14.60;100.00
15646;BME280;7922;43.622;1.476;2023-06-10T03:43:37;99709.00;;;14.63;100.00
15646;BME280;7922;43.622;1.476;2023-06-10T03:46:02;99714.59;;;14.73;100.00
15646;BME280;7922;43.622;1.476;2023-06-10T03:48:28;99654.94;;;14.33;100.00
15646;BME280;7922;43.622;1.476;2023-06-10T03:50:53;99713.06;;;14.69;100.00
15646;BME280;7922;43.622;1.476;2023-06-10T03:53:18;99704.13;;;14.56;100.00
15646;BME280;7922;43.622;1.476;2023-06-10T03:55:44;99588.28;;;13.91;100.00
15646;BME280;7922;43.622;1.476;2023-06-10T03:58:09;99665.59;;;14.33;100.00
15646;BME280;7922;43.622;1.476;2023-06-10T04:00:34;99588.47;;;13.88;100.00
15646;BME280;7922;43.622;1.476;2023-06-10T04:03:00;99694.91;;;14.47;100.00
15646;BME280;7922;43.622;1.476;2023-06-10T04:05:25;99678.53;;;14.39;100.00
15646;BME280;7922;43.622;1.476;2023-06-10T04:07:50;99713.94;;;14.55;100.00
15646;BME280;7922;43.622;1.476;2023-06-10T04:10:15;99722.06;;;14.54;100.00
15646;BME280;7922;43.622;1.476;2023-06-10T04:12:41;99769.16;;;14.82;100.00
15646;BME280;7922;43.622;1.476;2023-06-10T04:15:07;99707.88;;;14.53;100.00
15646;BME280;7922;43.622;1.476;2023-06-10T04:17:33;99623.28;;;14.00;100.00
15646;BME280;7922;43.622;1.476;2023-06-10T04:19:58;99641.06;;;14.13;100.00
15646;BME280;7922;43.622;1.476;2023-06-10T04:22:24;99749.72;;;14.80;100.00
15646;BME280;7922;43.622;1.476;2023-06-10T04:24:49;99712.25;;;14.54;100.00
15646;BME280;7922;43.622;1.476;2023-06-10T04:27:14;99638.28;;;14.15;100.00
15646;BME280;7922;43.622;1.476;2023-06-10T04:29:40;99752.50;;;14.78;100.00
15646;BME280;7922;43.622;1.476;2023-06-10T04:32:06;99747.06;;;14.80;100.00
15646;BME280;7922;43.622;1.476;2023-06-10T04:34:31;99759.34;;;14.82;100.00
15646;BME280;7922;43.622;1.476;2023-06-10T04:36:56;99732.94;;;14.78;100.00
15646;BME280;7922;43.622;1.476;2023-06-10T04:39:22;99674.53;;;14.46;100.00
15646;BME280;7922;43.622;1.476;2023-06-10T04:41:47;99736.09;;;14.84;100.00
15646;BME280;7922;43.622;1.476;2023-06-10T04:44:12;99737.53;;;14.90;100.00
15646;BME280;7922;43.622;1.476;2023-06-10T04:46:38;99712.19;;;14.83;100.00
15646;BME280;7922;43.622;1.476;2023-06-10T04:49:03;99707.72;;;14.83;100.00
15646;BME280;7922;43.622;1.476;2023-06-10T04:51:28;99749.28;;;15.14;100.00
15646;BME280;7922;43.622;1.476;2023-06-10T04:53:54;99755.16;;;15.20;100.00
15646;BME280;7922;43.622;1.476;2023-06-10T04:56:19;99731.84;;;15.09;100.00
15646;BME280;7922;43.622;1.476;2023-06-10T04:58:44;99712.47;;;14.92;100.00
15646;BME280;7922;43.622;1.476;2023-06-10T05:01:09;99763.25;;;15.32;100.00
15646;BME280;7922;43.622;1.476;2023-06-10T05:03:35;99743.47;;;15.35;100.00
15646;BME280;7922;43.622;1.476;2023-06-10T05:06:00;99651.25;;;14.77;100.00
15646;BME280;7922;43.622;1.476;2023-06-10T05:08:25;99802.47;;;15.72;100.00
15646;BME280;7922;43.622;1.476;2023-06-10T05:10:50;99630.94;;;14.88;100.00
15646;BME280;7922;43.622;1.476;2023-06-10T05:13:16;99731.50;;;15.55;100.00
15646;BME280;7922;43.622;1.476;2023-06-10T05:15:42;99635.81;;;15.09;100.00
15646;BME280;7922;43.622;1.476;2023-06-10T05:18:07;99778.41;;;15.99;100.00
15646;BME280;7922;43.622;1.476;2023-06-10T05:20:32;99752.50;;;15.86;100.00
15646;BME280;7922;43.622;1.476;2023-06-10T05:22:58;99749.34;;;15.94;100.00
15646;BME280;7922;43.622;1.476;2023-06-10T05:25:23;99748.81;;;16.02;100.00
15646;BME280;7922;43.622;1.476;2023-06-10T05:27:48;99755.00;;;16.15;100.00
15646;BME280;7922;43.622;1.476;2023-06-10T05:30:13;99797.16;;;16.50;100.00
15646;BME280;7922;43.622;1.476;2023-06-10T05:32:39;99762.38;;;16.37;100.00
15646;BME280;7922;43.622;1.476;2023-06-10T05:35:04;99714.06;;;16.15;99.75
15646;BME280;7922;43.622;1.476;2023-06-10T05:37:29;99785.16;;;16.68;100.00
15646;BME280;7922;43.622;1.476;2023-06-10T05:39:55;99750.63;;;16.52;99.80
15646;BME280;7922;43.622;1.476;2023-06-10T05:42:20;99635.31;;;15.95;99.17
15646;BME280;7922;43.622;1.476;2023-06-10T05:44:45;99797.63;;;17.06;99.33
15646;BME280;7922;43.622;1.476;2023-06-10T05:47:11;99699.41;;;16.46;98.60
15646;BME280;7922;43.622;1.476;2023-06-10T05:49:36;99769.84;;;16.96;99.14
15646;BME280;7922;43.622;1.476;2023-06-10T05:52:01;99771.63;;;16.95;99.41
15646;BME280;7922;43.622;1.476;2023-06-10T05:54:26;99772.47;;;17.08;98.94
15646;BME280;7922;43.622;1.476;2023-06-10T05:56:52;99771.63;;;17.08;98.32
15646;BME280;7922;43.622;1.476;2023-06-10T05:59:17;99748.81;;;17.02;98.10
15646;BME280;7922;43.622;1.476;2023-06-10T06:01:42;99774.16;;;17.22;98.33
15646;BME280;7922;43.622;1.476;2023-06-10T06:04:08;99680.63;;;16.71;97.43
15646;BME280;7922;43.622;1.476;2023-06-10T06:06:35;99775.06;;;17.34;98.13
15646;BME280;7922;43.622;1.476;2023-06-10T06:09:00;99791.22;;;17.56;97.77
15646;BME280;7922;43.622;1.476;2023-06-10T06:11:25;99714.50;;;17.20;97.16
15646;BME280;7922;43.622;1.476;2023-06-10T06:13:50;99709.38;;;17.17;97.37
15646;BME280;7922;43.622;1.476;2023-06-10T06:16:16;99740.88;;;17.38;97.37
15646;BME280;7922;43.622;1.476;2023-06-10T06:18:41;99673.28;;;17.23;97.45
15646;BME280;7922;43.622;1.476;2023-06-10T06:21:06;99775.75;;;18.08;97.73
15646;BME280;7922;43.622;1.476;2023-06-10T06:23:31;99650.06;;;17.35;96.48
15646;BME280;7922;43.622;1.476;2023-06-10T06:25:57;99807.72;;;18.22;94.63
15646;BME280;7922;43.622;1.476;2023-06-10T06:28:22;99696.56;;;17.69;96.46
15646;BME280;7922;43.622;1.476;2023-06-10T06:30:47;99731.59;;;17.90;94.91
15646;BME280;7922;43.622;1.476;2023-06-10T06:33:13;99794.00;;;18.38;95.17
15646;BME280;7922;43.622;1.476;2023-06-10T06:35:38;99783.50;;;18.35;95.41
15646;BME280;7922;43.622;1.476;2023-06-10T06:38:04;99720.44;;;18.07;95.03
15646;BME280;7922;43.622;1.476;2023-06-10T06:40:29;99799.84;;;18.66;94.99
15646;BME280;7922;43.622;1.476;2023-06-10T06:42:55;99819.41;;;18.90;94.55
15646;BME280;7922;43.622;1.476;2023-06-10T06:45:20;99777.81;;;18.96;94.13
15646;BME280;7922;43.622;1.476;2023-06-10T06:47:46;99685.47;;;18.53;92.49
15646;BME280;7922;43.622;1.476;2023-06-10T06:50:11;99810.31;;;19.47;92.96
15646;BME280;7922;43.622;1.476;2023-06-10T06:52:36;99716.31;;;18.93;90.75
15646;BME280;7922;43.622;1.476;2023-06-10T06:55:02;99683.63;;;18.88;90.64
15646;BME280;7922;43.622;1.476;2023-06-10T06:57:27;99782.94;;;19.65;89.34
15646;BME280;7922;43.622;1.476;2023-06-10T06:59:52;99833.81;;;20.10;89.42
15646;BME280;7922;43.622;1.476;2023-06-10T07:02:18;99738.69;;;19.69;88.20
15646;BME280;7922;43.622;1.476;2023-06-10T07:04:43;99788.41;;;19.95;87.17
15646;BME280;7922;43.622;1.476;2023-06-10T07:07:08;99800.44;;;20.12;86.78
15646;BME280;7922;43.622;1.476;2023-06-10T07:09:33;99702.44;;;19.63;86.25
15646;BME280;7922;43.622;1.476;2023-06-10T07:11:59;99843.63;;;20.53;85.81
15646;BME280;7922;43.622;1.476;2023-06-10T07:14:24;99722.59;;;19.90;84.78
15646;BME280;7922;43.622;1.476;2023-06-10T07:16:50;99747.34;;;20.14;85.54
15646;BME280;7922;43.622;1.476;2023-06-10T07:19:15;99701.94;;;19.90;84.02
15646;BME280;7922;43.622;1.476;2023-06-10T07:21:41;99743.38;;;20.09;83.18
15646;BME280;7922;43.622;1.476;2023-06-10T07:24:06;99825.16;;;20.69;83.58
15646;BME280;7922;43.622;1.476;2023-06-10T07:26:32;99795.28;;;20.72;82.70
15646;BME280;7922;43.622;1.476;2023-06-10T07:28:57;99778.38;;;20.60;84.22
15646;BME280;7922;43.622;1.476;2023-06-10T07:31:23;99815.53;;;20.97;83.92
15646;BME280;7922;43.622;1.476;2023-06-10T07:33:48;99804.22;;;21.03;82.71
15646;BME280;7922;43.622;1.476;2023-06-10T07:36:13;99787.75;;;20.97;81.28
15646;BME280;7922;43.622;1.476;2023-06-10T07:38:39;99790.75;;;21.13;81.37
15646;BME280;7922;43.622;1.476;2023-06-10T07:41:04;99745.84;;;20.73;80.34
15646;BME280;7922;43.622;1.476;2023-06-10T07:43:29;99811.59;;;21.11;80.53
15646;BME280;7922;43.622;1.476;2023-06-10T07:45:55;99811.72;;;21.09;78.88
15646;BME280;7922;43.622;1.476;2023-06-10T07:48:20;99788.94;;;21.13;81.38
15646;BME280;7922;43.622;1.476;2023-06-10T07:50:45;99739.56;;;21.03;80.72
15646;BME280;7922;43.622;1.476;2023-06-10T07:53:11;99721.13;;;20.99;78.97
15646;BME280;7922;43.622;1.476;2023-06-10T07:55:36;99828.88;;;21.49;79.03
15646;BME280;7922;43.622;1.476;2023-06-10T07:58:01;99794.78;;;21.28;78.87
15646;BME280;7922;43.622;1.476;2023-06-10T08:00:27;99833.44;;;21.68;79.46
15646;BME280;7922;43.622;1.476;2023-06-10T08:02:52;99817.44;;;21.66;78.01
15646;BME280;7922;43.622;1.476;2023-06-10T08:05:17;99775.84;;;21.59;77.47
15646;BME280;7922;43.622;1.476;2023-06-10T08:07:44;99821.00;;;22.05;77.42
15646;BME280;7922;43.622;1.476;2023-06-10T08:10:09;99731.47;;;21.53;76.45
15646;BME280;7922;43.622;1.476;2023-06-10T08:12:35;99780.53;;;21.96;76.13
15646;BME280;7922;43.622;1.476;2023-06-10T08:15:01;99758.94;;;22.05;75.78
15646;BME280;7922;43.622;1.476;2023-06-10T08:17:27;99728.03;;;21.90;74.26
15646;BME280;7922;43.622;1.476;2023-06-10T08:19:52;99758.22;;;22.13;73.19
15646;BME280;7922;43.622;1.476;2023-06-10T08:22:17;99828.75;;;22.67;74.15
15646;BME280;7922;43.622;1.476;2023-06-10T08:24:43;99837.06;;;22.83;74.72
15646;BME280;7922;43.622;1.476;2023-06-10T08:27:08;99812.25;;;22.70;73.32
15646;BME280;7922;43.622;1.476;2023-06-10T08:29:34;99860.13;;;22.77;73.50
15646;BME280;7922;43.622;1.476;2023-06-10T08:31:59;99824.09;;;22.59;71.93
15646;BME280;7922;43.622;1.476;2023-06-10T08:34:25;99854.66;;;23.06;71.81
15646;BME280;7922;43.622;1.476;2023-06-10T08:36:50;99829.25;;;22.99;71.34
15646;BME280;7922;43.622;1.476;2023-06-10T08:39:15;99736.63;;;22.32;68.48
15646;BME280;7922;43.622;1.476;2023-06-10T08:41:51;99834.22;;;22.94;69.96
15646;BME280;7922;43.622;1.476;2023-06-10T08:44:28;99825.03;;;23.15;69.86
15646;BME280;7922;43.622;1.476;2023-06-10T08:46:55;99862.94;;;23.33;69.52
15646;BME280;7922;43.622;1.476;2023-06-10T08:49:22;99703.44;;;22.59;70.26
15646;BME280;7922;43.622;1.476;2023-06-10T08:51:50;99838.75;;;23.31;69.90
15646;BME280;7922;43.622;1.476;2023-06-10T08:54:22;99857.31;;;23.44;69.12
15646;BME280;7922;43.622;1.476;2023-06-10T08:56:51;99821.63;;;23.40;69.16
15646;BME280;7922;43.622;1.476;2023-06-10T08:59:16;99763.84;;;22.96;66.35
15646;BME280;7922;43.622;1.476;2023-06-10T09:01:43;99789.41;;;23.01;66.24
15646;BME280;7922;43.622;1.476;2023-06-10T09:04:09;99825.19;;;23.13;66.86
15646;BME280;7922;43.622;1.476;2023-06-10T09:06:34;99878.75;;;23.55;65.78
15646;BME280;7922;43.622;1.476;2023-06-10T09:09:00;99827.19;;;23.39;65.57
15646;BME280;7922;43.622;1.476;2023-06-10T09:11:25;99820.50;;;23.43;69.12
15646;BME280;7922;43.622;1.476;2023-06-10T09:13:51;99749.63;;;22.94;66.44
15646;BME280;7922;43.622;1.476;2023-06-10T09:16:16;99775.69;;;23.13;67.74
15646;BME280;7922;43.622;1.476;2023-06-10T09:18:42;99836.69;;;23.70;69.28
15646;BME280;7922;43.622;1.476;2023-06-10T09:21:07;99777.59;;;23.48;67.19
15646;BME280;7922;43.622;1.476;2023-06-10T09:23:33;99737.88;;;23.30;64.57
15646;BME280;7922;43.622;1.476;2023-06-10T09:25:58;99731.03;;;23.36;64.15
15646;BME280;7922;43.622;1.476;2023-06-10T09:28:24;99843.38;;;24.12;64.65
15646;BME280;7922;43.622;1.476;2023-06-10T09:30:49;99851.38;;;24.21;63.28
15646;BME280;7922;43.622;1.476;2023-06-10T09:33:15;99848.22;;;24.26;63.27
15646;BME280;7922;43.622;1.476;2023-06-10T09:35:49;99859.44;;;24.13;64.58
15646;BME280;7922;43.622;1.476;2023-06-10T09:38:19;99759.91;;;23.36;63.93
15646;BME280;7922;43.622;1.476;2023-06-10T09:40:52;99856.72;;;24.31;63.29
15646;BME280;7922;43.622;1.476;2023-06-10T09:43:18;99779.50;;;24.01;61.73
15646;BME280;7922;43.622;1.476;2023-06-10T09:45:43;99854.84;;;24.32;61.55
15646;BME280;7922;43.622;1.476;2023-06-10T09:48:09;99764.66;;;24.05;62.71
15646;BME280;7922;43.622;1.476;2023-06-10T09:50:34;99724.91;;;24.06;61.85
15646;BME280;7922;43.622;1.476;2023-06-10T09:53:06;99851.25;;;24.67;58.94
15646;BME280;7922;43.622;1.476;2023-06-10T09:55:33;99860.81;;;24.53;58.83
15646;BME280;7922;43.622;1.476;2023-06-10T09:57:58;99860.81;;;24.79;59.54
15646;BME280;7922;43.622;1.476;2023-06-10T10:00:24;99864.28;;;24.63;59.15
15646;BME280;7922;43.622;1.476;2023-06-10T10:02:51;99854.84;;;24.49;58.55
15646;BME280;7922;43.622;1.476;2023-06-10T10:05:18;99807.50;;;24.54;59.65
15646;BME280;7922;43.622;1.476;2023-06-10T10:07:44;99854.28;;;24.90;58.25
15646;BME280;7922;43.622;1.476;2023-06-10T10:10:12;99862.13;;;25.01;57.73
15646;BME280;7922;43.622;1.476;2023-06-10T10:12:38;99828.00;;;24.56;56.70
15646;BME280;7922;43.622;1.476;2023-06-10T10:15:06;99856.69;;;24.67;58.12
15646;BME280;7922;43.622;1.476;2023-06-10T10:17:32;99837.28;;;24.80;57.89
15646;BME280;7922;43.622;1.476;2023-06-10T10:20:02;99801.00;;;24.72;58.14
15646;BME280;7922;43.622;1.476;2023-06-10T10:22:39;99763.47;;;24.52;57.02
15646;BME280;7922;43.622;1.476;2023-06-10T10:25:10;99848.97;;;25.06;56.94
15646;BME280;7922;43.622;1.476;2023-06-10T10:30:28;99816.69;;;25.21;56.49
15646;BME280;7922;43.622;1.476;2023-06-10T10:35:25;99845.81;;;25.61;54.37
15646;BME280;7922;43.622;1.476;2023-06-10T10:37:54;99851.34;;;25.86;55.83
15646;BME280;7922;43.622;1.476;2023-06-10T10:40:23;99815.84;;;25.71;54.48
15646;BME280;7922;43.622;1.476;2023-06-10T10:42:50;99803.75;;;25.65;52.45
15646;BME280;7922;43.622;1.476;2023-06-10T10:45:16;99837.97;;;26.09;53.30
15646;BME280;7922;43.622;1.476;2023-06-10T10:47:43;99807.56;;;26.13;53.14
15646;BME280;7922;43.622;1.476;2023-06-10T10:50:17;99846.44;;;26.30;53.21
15646;BME280;7922;43.622;1.476;2023-06-10T10:55:18;99734.75;;;25.68;52.58
15646;BME280;7922;43.622;1.476;2023-06-10T10:57:44;99770.56;;;25.88;53.02
15646;BME280;7922;43.622;1.476;2023-06-10T11:00:09;99815.47;;;25.66;52.02
15646;BME280;7922;43.622;1.476;2023-06-10T11:02:36;99848.81;;;26.17;54.14
15646;BME280;7922;43.622;1.476;2023-06-10T11:05:02;99833.56;;;26.49;52.10
15646;BME280;7922;43.622;1.476;2023-06-10T11:07:32;99810.97;;;26.56;51.02
15646;BME280;7922;43.622;1.476;2023-06-10T11:15:13;99819.63;;;26.35;49.61
15646;BME280;7922;43.622;1.476;2023-06-10T11:21:02;99843.56;;;26.64;49.98
15646;BME280;7922;43.622;1.476;2023-06-10T11:29:01;99832.81;;;26.79;48.46
15646;BME280;7922;43.622;1.476;2023-06-10T11:31:33;99828.50;;;27.01;46.19
15646;BME280;7922;43.622;1.476;2023-06-10T11:34:03;99802.00;;;26.48;47.21
15646;BME280;7922;43.622;1.476;2023-06-10T11:36:29;99796.50;;;26.72;46.88
15646;BME280;7922;43.622;1.476;2023-06-10T11:39:00;99735.97;;;26.14;47.58
15646;BME280;7922;43.622;1.476;2023-06-10T11:41:26;99747.66;;;26.31;47.16
15646;BME280;7922;43.622;1.476;2023-06-10T11:43:53;99800.69;;;26.91;45.59
15646;BME280;7922;43.622;1.476;2023-06-10T11:46:18;99808.09;;;27.22;45.61
15646;BME280;7922;43.622;1.476;2023-06-10T11:48:57;99724.97;;;26.72;44.46
15646;BME280;7922;43.622;1.476;2023-06-10T11:51:27;99811.47;;;27.24;43.96
15646;BME280;7922;43.622;1.476;2023-06-10T11:53:54;99756.13;;;27.00;44.35
15646;BME280;7922;43.622;1.476;2023-06-10T11:56:23;99683.91;;;26.67;44.48
15646;BME280;7922;43.622;1.476;2023-06-10T11:59:03;99704.41;;;26.77;43.47
15646;BME280;7922;43.622;1.476;2023-06-10T12:01:29;99771.53;;;27.24;45.18
15646;BME280;7922;43.622;1.476;2023-06-10T12:03:59;99775.25;;;26.84;43.01
15646;BME280;7922;43.622;1.476;2023-06-10T12:06:25;99720.38;;;26.80;43.98
15646;BME280;7922;43.622;1.476;2023-06-10T12:08:50;99754.19;;;26.78;43.28
15646;BME280;7922;43.622;1.476;2023-06-10T12:11:15;99753.94;;;26.48;43.66
15646;BME280;7922;43.622;1.476;2023-06-10T12:13:48;99785.88;;;26.94;43.03
15646;BME280;7922;43.622;1.476;2023-06-10T12:16:14;99767.34;;;26.97;42.50
15646;BME280;7922;43.622;1.476;2023-06-10T12:18:39;99765.25;;;27.24;42.09
15646;BME280;7922;43.622;1.476;2023-06-10T12:21:16;99694.06;;;27.12;41.57
15646;BME280;7922;43.622;1.476;2023-06-10T12:24:01;99751.31;;;27.73;40.64
15646;BME280;7922;43.622;1.476;2023-06-10T12:26:44;99792.53;;;28.16;40.59
15646;BME280;7922;43.622;1.476;2023-06-10T12:29:18;99762.16;;;28.42;40.45
15646;BME280;7922;43.622;1.476;2023-06-10T12:32:03;99783.03;;;28.49;39.37
15646;BME280;7922;43.622;1.476;2023-06-10T12:34:39;99727.38;;;27.68;41.21
15646;BME280;7922;43.622;1.476;2023-06-10T12:37:14;99745.53;;;27.76;42.09
15646;BME280;7922;43.622;1.476;2023-06-10T12:39:40;99747.75;;;28.18;42.49
15646;BME280;7922;43.622;1.476;2023-06-10T12:42:05;99754.66;;;28.06;42.31
15646;BME280;7922;43.622;1.476;2023-06-10T12:44:32;99738.06;;;27.70;43.82
15646;BME280;7922;43.622;1.476;2023-06-10T12:46:58;99762.34;;;27.56;43.28
15646;BME280;7922;43.622;1.476;2023-06-10T12:49:24;99726.53;;;27.14;43.70
15646;BME280;7922;43.622;1.476;2023-06-10T12:51:49;99723.50;;;27.00;44.60
15646;BME280;7922;43.622;1.476;2023-06-10T12:54:14;99686.88;;;26.88;44.33
15646;BME280;7922;43.622;1.476;2023-06-10T12:56:40;99754.22;;;27.17;43.93
15646;BME280;7922;43.622;1.476;2023-06-10T12:59:05;99733.34;;;27.41;43.56
15646;BME280;7922;43.622;1.476;2023-06-10T13:01:31;99718.28;;;27.99;41.94
15646;BME280;7922;43.622;1.476;2023-06-10T13:03:56;99703.72;;;27.92;41.53
15646;BME280;7922;43.622;1.476;2023-06-10T13:06:22;99720.47;;;28.56;41.37
15646;BME280;7922;43.622;1.476;2023-06-10T13:08:47;99725.81;;;28.49;39.16
15646;BME280;7922;43.622;1.476;2023-06-10T13:11:12;99621.50;;;27.35;41.63
15646;BME280;7922;43.622;1.476;2023-06-10T13:13:37;99715.53;;;27.38;43.00
15646;BME280;7922;43.622;1.476;2023-06-10T13:16:03;99685.78;;;27.05;44.38
15646;BME280;7922;43.622;1.476;2023-06-10T13:18:28;99687.38;;;27.23;44.52
15646;BME280;7922;43.622;1.476;2023-06-10T13:20:54;99720.47;;;27.80;43.92
15646;BME280;7922;43.622;1.476;2023-06-10T13:23:19;99628.69;;;27.28;43.00
15646;BME280;7922;43.622;1.476;2023-06-10T13:25:44;99711.97;;;27.83;42.83